Time,TemperatureF,DewpointF,PressureIn,WindDirection,WindDirectionDegrees,WindSpeedMPH,WindSpeedGustMPH,Humidity,HourlyPrecipIn,Conditions,Clouds,dailyrainin,SoftwareType,DateUTC
2013-03-01 00:00:00,37.0,30.0,-100.00,WNW,298,6.0,15.0,76,-99.99,,,-99.99,,2013-03-01 05:00:00,
2013-03-01 00:22:00,37.0,30.0,-100.00,WNW,298,6.0,15.0,76,-99.99,,,-99.99,,2013-03-01 05:22:00,
2013-03-01 00:33:00,37.0,30.0,-100.00,WNW,298,6.0,15.0,76,-99.99,,,-99.99,,2013-03-01 05:33:00,
2013-03-01 00:42:00,37.0,30.0,-100.00,WNW,298,6.0,15.0,76,-99.99,,,-99.99,,2013-03-01 05:42:00,
2013-03-01 00:53:00,37.0,30.0,-100.00,WNW,298,6.0,15.0,76,-99.99,,,-99.99,,2013-03-01 05:53:00,
2013-03-01 01:00:00,36.0,30.0,-100.00,WNW,296,4.0,13.0,80,-99.99,,,-99.99,,2013-03-01 06:00:00,
2013-03-01 01:22:00,36.0,30.0,-100.00,WNW,296,4.0,13.0,80,-99.99,,,-99.99,,2013-03-01 06:22:00,
2013-03-01 01:32:00,36.0,30.0,-100.00,WNW,296,4.0,13.0,80,-99.99,,,-99.99,,2013-03-01 06:32:00,
2013-03-01 01:42:00,36.0,30.0,-100.00,WNW,296,4.0,13.0,80,-99.99,,,-99.99,,2013-03-01 06:42:00,
2013-03-01 01:53:00,36.0,30.0,-100.00,WNW,296,4.0,13.0,80,-99.99,,,-99.99,,2013-03-01 06:53:00,
2013-03-01 02:00:00,35.0,30.0,-100.00,WNW,303,7.0,9.0,83,-99.99,,,-99.99,,2013-03-01 07:00:00,
2013-03-01 02:22:00,35.0,30.0,-100.00,WNW,303,7.0,9.0,83,-99.99,,,-99.99,,2013-03-01 07:22:00,
2013-03-01 02:33:00,35.0,30.0,-100.00,WNW,303,7.0,9.0,83,-99.99,,,-99.99,,2013-03-01 07:33:00,
2013-03-01 02:42:00,35.0,30.0,-100.00,WNW,303,7.0,9.0,83,-99.99,,,-99.99,,2013-03-01 07:42:00,
2013-03-01 02:52:00,35.0,30.0,-100.00,WNW,303,7.0,9.0,83,-99.99,,,-99.99,,2013-03-01 07:52:00,
2013-03-01 03:00:00,34.0,30.0,-100.00,WNW,292,4.0,11.0,84,-99.99,,,-99.99,,2013-03-01 08:00:00,
2013-03-01 03:22:00,34.0,30.0,-100.00,WNW,292,4.0,11.0,84,-99.99,,,-99.99,,2013-03-01 08:22:00,
2013-03-01 03:33:00,34.0,30.0,-100.00,WNW,292,4.0,11.0,84,-99.99,,,-99.99,,2013-03-01 08:33:00,
2013-03-01 03:43:00,34.0,30.0,-100.00,WNW,292,4.0,11.0,84,-99.99,,,-99.99,,2013-03-01 08:43:00,
2013-03-01 03:53:00,34.0,30.0,-100.00,WNW,292,4.0,11.0,84,-99.99,,,-99.99,,2013-03-01 08:53:00,
2013-03-01 04:00:00,34.0,30.0,-100.00,NW,309,3.0,9.0,84,-99.99,,,-99.99,,2013-03-01 09:00:00,
2013-03-01 04:22:00,34.0,30.0,-100.00,NW,309,3.0,9.0,84,-99.99,,,-99.99,,2013-03-01 09:22:00,
2013-03-01 04:32:00,34.0,30.0,-100.00,NW,309,3.0,9.0,84,-99.99,,,-99.99,,2013-03-01 09:32:00,
2013-03-01 04:42:00,34.0,30.0,-100.00,NW,309,3.0,9.0,84,-99.99,,,-99.99,,2013-03-01 09:42:00,
2013-03-01 04:53:00,34.0,30.0,-100.00,NW,309,3.0,9.0,84,-99.99,,,-99.99,,2013-03-01 09:53:00,
2013-03-01 05:00:00,35.0,29.0,-100.00,NW,319,6.0,11.0,80,-99.99,,,-99.99,,2013-03-01 10:00:00,
2013-03-01 05:22:00,35.0,29.0,-100.00,NW,319,6.0,11.0,80,-99.99,,,-99.99,,2013-03-01 10:22:00,
2013-03-01 05:32:00,35.0,29.0,-100.00,NW,319,6.0,11.0,80,-99.99,,,-99.99,,2013-03-01 10:32:00,
2013-03-01 05:42:00,35.0,29.0,-100.00,NW,319,6.0,11.0,80,-99.99,,,-99.99,,2013-03-01 10:42:00,
2013-03-01 05:53:00,35.0,29.0,-100.00,NW,319,6.0,11.0,80,-99.99,,,-99.99,,2013-03-01 10:53:00,
2013-03-01 06:00:00,34.0,29.0,-100.00,WNW,282,4.0,12.0,81,-99.99,,,-99.99,,2013-03-01 11:00:00,
2013-03-01 06:23:00,34.0,29.0,-100.00,WNW,282,4.0,12.0,81,-99.99,,,-99.99,,2013-03-01 11:23:00,
2013-03-01 06:32:00,34.0,29.0,-100.00,WNW,282,4.0,12.0,81,-99.99,,,-99.99,,2013-03-01 11:32:00,
2013-03-01 06:42:00,34.0,29.0,-100.00,WNW,282,4.0,12.0,81,-99.99,,,-99.99,,2013-03-01 11:42:00,
2013-03-01 06:53:00,34.0,29.0,-100.00,WNW,282,4.0,12.0,81,-99.99,,,-99.99,,2013-03-01 11:53:00,
2013-03-01 07:00:00,34.0,29.0,-100.00,WNW,299,5.0,11.0,81,-99.99,,,-99.99,,2013-03-01 12:00:00,
2013-03-01 07:33:00,34.0,29.0,-100.00,WNW,299,5.0,11.0,81,-99.99,,,-99.99,,2013-03-01 12:33:00,
2013-03-01 07:42:00,34.0,29.0,-100.00,WNW,299,5.0,11.0,81,-99.99,,,-99.99,,2013-03-01 12:42:00,
2013-03-01 07:52:00,34.0,29.0,-100.00,WNW,299,5.0,11.0,81,-99.99,,,-99.99,,2013-03-01 12:52:00,
2013-03-01 08:00:00,38.0,30.0,-100.00,NW,315,7.0,13.0,72,-99.99,,,-99.99,,2013-03-01 13:00:00,
2013-03-01 08:22:00,38.0,30.0,-100.00,NW,315,7.0,13.0,72,-99.99,,,-99.99,,2013-03-01 13:22:00,
2013-03-01 08:32:00,38.0,30.0,-100.00,NW,315,7.0,13.0,72,-99.99,,,-99.99,,2013-03-01 13:32:00,
2013-03-01 08:42:00,38.0,30.0,-100.00,NW,315,7.0,13.0,72,-99.99,,,-99.99,,2013-03-01 13:42:00,
2013-03-01 08:52:00,38.0,30.0,-100.00,NW,315,7.0,13.0,72,-99.99,,,-99.99,,2013-03-01 13:52:00,
2013-03-01 09:00:00,41.0,30.0,-100.00,NW,309,6.0,18.0,63,-99.99,,,-99.99,,2013-03-01 14:00:00,
2013-03-01 09:22:00,41.0,30.0,-100.00,NW,309,6.0,18.0,63,-99.99,,,-99.99,,2013-03-01 14:22:00,
2013-03-01 09:32:00,41.0,30.0,-100.00,NW,309,6.0,18.0,63,-99.99,,,-99.99,,2013-03-01 14:32:00,
2013-03-01 09:42:00,41.0,30.0,-100.00,NW,309,6.0,18.0,63,-99.99,,,-99.99,,2013-03-01 14:42:00,
2013-03-01 09:52:00,41.0,30.0,-100.00,NW,309,6.0,18.0,63,-99.99,,,-99.99,,2013-03-01 14:52:00,
2013-03-01 10:00:00,43.0,29.0,-100.00,NW,319,8.0,20.0,58,-99.99,,,-99.99,,2013-03-01 15:00:00,
2013-03-01 10:21:00,43.0,29.0,-100.00,NW,319,8.0,20.0,58,-99.99,,,-99.99,,2013-03-01 15:21:00,
2013-03-01 10:32:00,43.0,29.0,-100.00,NW,319,8.0,20.0,58,-99.99,,,-99.99,,2013-03-01 15:32:00,
2013-03-01 10:42:00,43.0,29.0,-100.00,NW,319,8.0,20.0,58,-99.99,,,-99.99,,2013-03-01 15:42:00,
2013-03-01 10:52:00,43.0,29.0,-100.00,NW,319,8.0,20.0,58,-99.99,,,-99.99,,2013-03-01 15:52:00,
2013-03-01 11:00:00,43.0,28.0,-100.00,NNW,338,8.0,16.0,54,-99.99,,,-99.99,,2013-03-01 16:00:00,
2013-03-01 11:22:00,43.0,28.0,-100.00,NNW,338,8.0,16.0,54,-99.99,,,-99.99,,2013-03-01 16:22:00,
2013-03-01 11:32:00,43.0,28.0,-100.00,NNW,338,8.0,16.0,54,-99.99,,,-99.99,,2013-03-01 16:32:00,
2013-03-01 11:42:00,43.0,28.0,-100.00,NNW,338,8.0,16.0,54,-99.99,,,-99.99,,2013-03-01 16:42:00,
2013-03-01 11:52:00,43.0,28.0,-100.00,NNW,338,8.0,16.0,54,-99.99,,,-99.99,,2013-03-01 16:52:00,
2013-03-01 12:00:00,44.0,27.0,-100.00,North,352,8.0,18.0,52,-99.99,,,-99.99,,2013-03-01 17:00:00,
2013-03-01 12:21:00,44.0,27.0,-100.00,North,352,8.0,18.0,52,-99.99,,,-99.99,,2013-03-01 17:21:00,
2013-03-01 12:32:00,44.0,27.0,-100.00,North,352,8.0,18.0,52,-99.99,,,-99.99,,2013-03-01 17:32:00,
2013-03-01 12:42:00,44.0,27.0,-100.00,North,352,8.0,18.0,52,-99.99,,,-99.99,,2013-03-01 17:42:00,
2013-03-01 12:52:00,44.0,27.0,-100.00,North,352,8.0,18.0,52,-99.99,,,-99.99,,2013-03-01 17:52:00,
2013-03-01 13:00:00,43.0,26.0,-100.00,NW,324,5.0,17.0,51,-99.99,,,-99.99,,2013-03-01 18:00:00,
2013-03-01 13:22:00,43.0,26.0,-100.00,NW,324,5.0,17.0,51,-99.99,,,-99.99,,2013-03-01 18:22:00,
2013-03-01 13:32:00,43.0,26.0,-100.00,NW,324,5.0,17.0,51,-99.99,,,-99.99,,2013-03-01 18:32:00,
2013-03-01 13:42:00,43.0,26.0,-100.00,NW,324,5.0,17.0,51,-99.99,,,-99.99,,2013-03-01 18:42:00,
2013-03-01 13:52:00,43.0,26.0,-100.00,NW,324,5.0,17.0,51,-99.99,,,-99.99,,2013-03-01 18:52:00,
2013-03-01 14:00:00,44.0,26.0,-100.00,NNW,337,5.0,11.0,49,-99.99,,,-99.99,,2013-03-01 19:00:00,
2013-03-01 14:22:00,44.0,26.0,-100.00,NNW,337,5.0,11.0,49,-99.99,,,-99.99,,2013-03-01 19:22:00,
2013-03-01 14:32:00,44.0,26.0,-100.00,NNW,337,5.0,11.0,49,-99.99,,,-99.99,,2013-03-01 19:32:00,
2013-03-01 14:42:00,44.0,26.0,-100.00,NNW,337,5.0,11.0,49,-99.99,,,-99.99,,2013-03-01 19:42:00,
2013-03-01 14:52:00,44.0,26.0,-100.00,NNW,337,5.0,11.0,49,-99.99,,,-99.99,,2013-03-01 19:52:00,
2013-03-01 15:00:00,44.0,25.0,-100.00,North,351,8.0,11.0,47,-99.99,,,-99.99,,2013-03-01 20:00:00,
2013-03-01 15:22:00,44.0,25.0,-100.00,North,351,8.0,11.0,47,-99.99,,,-99.99,,2013-03-01 20:22:00,
2013-03-01 15:32:00,44.0,25.0,-100.00,North,351,8.0,11.0,47,-99.99,,,-99.99,,2013-03-01 20:32:00,
2013-03-01 15:42:00,44.0,25.0,-100.00,North,351,8.0,11.0,47,-99.99,,,-99.99,,2013-03-01 20:42:00,
2013-03-01 15:52:00,44.0,25.0,-100.00,North,351,8.0,11.0,47,-99.99,,,-99.99,,2013-03-01 20:52:00,
2013-03-01 16:00:00,44.0,26.0,-100.00,NNW,340,5.0,16.0,49,-99.99,,,-99.99,,2013-03-01 21:00:00,
2013-03-01 16:22:00,44.0,26.0,-100.00,NNW,340,5.0,16.0,49,-99.99,,,-99.99,,2013-03-01 21:22:00,
2013-03-01 16:32:00,44.0,26.0,-100.00,NNW,340,5.0,16.0,49,-99.99,,,-99.99,,2013-03-01 21:32:00,
2013-03-01 16:42:00,44.0,26.0,-100.00,NNW,340,5.0,16.0,49,-99.99,,,-99.99,,2013-03-01 21:42:00,
2013-03-01 16:52:00,44.0,26.0,-100.00,NNW,340,5.0,16.0,49,-99.99,,,-99.99,,2013-03-01 21:52:00,
2013-03-01 17:00:00,43.0,26.0,-100.00,NW,311,7.0,17.0,51,-99.99,,,-99.99,,2013-03-01 22:00:00,
2013-03-01 17:22:00,43.0,26.0,-100.00,NW,311,7.0,17.0,51,-99.99,,,-99.99,,2013-03-01 22:22:00,
2013-03-01 17:32:00,43.0,26.0,-100.00,NW,311,7.0,17.0,51,-99.99,,,-99.99,,2013-03-01 22:32:00,
2013-03-01 17:42:00,43.0,26.0,-100.00,NW,311,7.0,17.0,51,-99.99,,,-99.99,,2013-03-01 22:42:00,
2013-03-01 17:52:00,43.0,26.0,-100.00,NW,311,7.0,17.0,51,-99.99,,,-99.99,,2013-03-01 22:52:00,
2013-03-01 18:00:00,42.0,27.0,-100.00,NW,325,12.0,16.0,54,-99.99,,,-99.99,,2013-03-01 23:00:00,
2013-03-01 18:21:00,42.0,27.0,-100.00,NW,325,12.0,16.0,54,-99.99,,,-99.99,,2013-03-01 23:21:00,
2013-03-01 18:32:00,42.0,27.0,-100.00,NW,325,12.0,16.0,54,-99.99,,,-99.99,,2013-03-01 23:32:00,
2013-03-01 18:42:00,42.0,27.0,-100.00,NW,325,12.0,16.0,54,-99.99,,,-99.99,,2013-03-01 23:42:00,
2013-03-01 18:52:00,42.0,27.0,-100.00,NW,325,12.0,16.0,54,-99.99,,,-99.99,,2013-03-01 23:52:00,
2013-03-01 19:00:00,41.0,27.0,-100.00,NNW,346,11.0,24.0,57,-99.99,,,-99.99,,2013-03-02 00:00:00,
2013-03-01 19:32:00,41.0,27.0,-100.00,NNW,346,11.0,24.0,57,-99.99,,,-99.99,,2013-03-02 00:32:00,
2013-03-01 19:42:00,41.0,27.0,-100.00,NNW,346,11.0,24.0,57,-99.99,,,-99.99,,2013-03-02 00:42:00,
2013-03-01 19:52:00,41.0,27.0,-100.00,NNW,346,11.0,24.0,57,-99.99,,,-99.99,,2013-03-02 00:52:00,
2013-03-01 20:00:00,40.0,27.0,-100.00,NW,306,14.0,17.0,61,-99.99,,,-99.99,,2013-03-02 01:00:00,
2013-03-01 20:21:00,40.0,27.0,-100.00,NW,306,14.0,17.0,61,-99.99,,,-99.99,,2013-03-02 01:21:00,
2013-03-01 20:32:00,40.0,27.0,-100.00,NW,306,14.0,17.0,61,-99.99,,,-99.99,,2013-03-02 01:32:00,
2013-03-01 20:42:00,40.0,27.0,-100.00,NW,306,14.0,17.0,61,-99.99,,,-99.99,,2013-03-02 01:42:00,
2013-03-01 20:52:00,40.0,27.0,-100.00,NW,306,14.0,17.0,61,-99.99,,,-99.99,,2013-03-02 01:52:00,
2013-03-01 21:00:00,40.0,27.0,-100.00,NNW,335,11.0,18.0,59,-99.99,,,-99.99,,2013-03-02 02:00:00,
2013-03-01 21:22:00,40.0,27.0,-100.00,NNW,335,11.0,18.0,59,-99.99,,,-99.99,,2013-03-02 02:22:00,
2013-03-01 21:32:00,40.0,27.0,-100.00,NNW,335,11.0,18.0,59,-99.99,,,-99.99,,2013-03-02 02:32:00,
2013-03-01 21:42:00,40.0,27.0,-100.00,NNW,335,11.0,18.0,59,-99.99,,,-99.99,,2013-03-02 02:42:00,
2013-03-01 21:52:00,40.0,27.0,-100.00,NNW,335,11.0,18.0,59,-99.99,,,-99.99,,2013-03-02 02:52:00,
2013-03-01 22:00:00,39.0,26.0,-100.00,NNW,330,5.0,17.0,60,-99.99,,,-99.99,,2013-03-02 03:00:00,
2013-03-01 22:22:00,39.0,26.0,-100.00,NNW,330,5.0,17.0,60,-99.99,,,-99.99,,2013-03-02 03:22:00,
2013-03-01 22:32:00,39.0,26.0,-100.00,NNW,330,5.0,17.0,60,-99.99,,,-99.99,,2013-03-02 03:32:00,
2013-03-01 22:42:00,39.0,26.0,-100.00,NNW,330,5.0,17.0,60,-99.99,,,-99.99,,2013-03-02 03:42:00,
2013-03-01 22:52:00,39.0,26.0,-100.00,NNW,330,5.0,17.0,60,-99.99,,,-99.99,,2013-03-02 03:52:00,
2013-03-01 23:00:00,38.0,25.0,-100.00,NNW,328,6.0,16.0,59,-99.99,,,-99.99,,2013-03-02 04:00:00,
2013-03-01 23:32:00,38.0,25.0,-100.00,NNW,328,6.0,16.0,59,-99.99,,,-99.99,,2013-03-02 04:32:00,
2013-03-01 23:42:00,38.0,25.0,-100.00,NNW,328,6.0,16.0,59,-99.99,,,-99.99,,2013-03-02 04:42:00,
2013-03-01 23:52:00,38.0,25.0,-100.00,NNW,328,6.0,16.0,59,-99.99,,,-99.99,,2013-03-02 04:52:00,